Time;durP1;ratioP1;P1;durP2;ratioP2;P2;SDS_P1;SDS_P2;PMS_P1;PMS_P2;Temp;Humidity;BMP_temperature;BMP_pressure;BME280_temperature;BME280_humidity;BME280_pressure;Samples;Min_cycle;Max_cycle;Signal;HPM_P1;HPM_P2
2022/04/01 00:01:18;;;;;;;8.53;4.33;;;4.40;37.70;;;;;;5016264;28;20038;-65
2022/04/01 00:03:43;;;;;;;10.10;4.20;;;4.40;37.90;;;;;;5019379;28;20034;-64
2022/04/01 00:06:09;;;;;;;6.40;4.20;;;4.30;38.20;;;;;;5021169;28;20030;-65
2022/04/01 00:08:35;;;;;;;7.00;4.60;;;4.40;38.90;;;;;;5021078;28;20041;-65
2022/04/01 00:11:01;;;;;;;9.87;4.77;;;4.30;39.10;;;;;;5006068;28;20034;-64
2022/04/01 00:13:27;;;;;;;9.33;4.20;;;4.30;39.30;;;;;;5057917;22;20516;-67
2022/04/01 00:15:52;;;;;;;9.43;5.13;;;4.20;39.70;;;;;;5058953;28;20037;-66
2022/04/01 00:18:18;;;;;;;9.47;4.37;;;4.20;39.90;;;;;;5056060;28;20447;-65
2022/04/01 00:20:44;;;;;;;9.03;5.10;;;4.10;40.00;;;;;;5049756;28;20116;-65
2022/04/01 00:23:12;;;;;;;10.03;4.90;;;4.10;40.20;;;;;;5063637;28;20059;-66
2022/04/01 00:25:39;;;;;;;7.97;4.57;;;4.10;40.40;;;;;;5052677;28;20650;-67
2022/04/01 00:28:05;;;;;;;7.53;3.83;;;4.10;40.30;;;;;;5052704;28;20033;-67
2022/04/01 00:30:33;;;;;;;8.57;4.60;;;4.00;40.90;;;;;;5050476;28;20411;-65
2022/04/01 00:32:59;;;;;;;8.67;4.93;;;3.90;40.70;;;;;;5053504;28;20024;-67
2022/04/01 00:35:25;;;;;;;9.43;4.27;;;3.90;40.80;;;;;;5053255;28;20382;-67
2022/04/01 00:37:52;;;;;;;6.97;4.60;;;3.90;40.90;;;;;;5057328;28;20131;-67
2022/04/01 00:40:18;;;;;;;11.03;5.03;;;3.80;40.70;;;;;;5040719;28;20032;-66
2022/04/01 00:42:45;;;;;;;5.03;4.00;;;3.90;40.90;;;;;;5055077;28;20032;-69
2022/04/01 00:45:11;;;;;;;10.57;4.80;;;3.90;40.90;;;;;;5053960;28;20122;-67
2022/04/01 00:47:38;;;;;;;8.20;4.90;;;3.80;41.10;;;;;;5061694;28;20017;-68
2022/04/01 00:50:05;;;;;;;7.63;3.20;;;3.80;40.90;;;;;;5050414;28;20111;-67
2022/04/01 00:52:31;;;;;;;8.30;4.40;;;3.70;41.00;;;;;;5054569;28;20028;-67
2022/04/01 00:54:57;;;;;;;7.73;4.27;;;3.70;41.10;;;;;;5052228;28;20508;-67
2022/04/01 00:57:25;;;;;;;10.27;4.67;;;3.70;40.90;;;;;;5050724;28;20051;-67
2022/04/01 00:59:52;;;;;;;8.20;4.20;;;3.70;41.00;;;;;;5052201;28;20033;-66
2022/04/01 01:02:18;;;;;;;6.00;3.93;;;3.60;40.50;;;;;;5051487;28;20020;-67
2022/04/01 01:04:44;;;;;;;7.30;4.30;;;3.60;40.60;;;;;;5049950;28;20452;-67
2022/04/01 01:07:10;;;;;;;6.50;3.87;;;3.60;41.50;;;;;;5046899;28;20021;-67
2022/04/01 01:09:35;;;;;;;8.43;5.23;;;3.60;41.10;;;;;;5041070;28;20562;-67
2022/04/01 01:12:01;;;;;;;9.17;3.97;;;3.50;41.20;;;;;;5045135;28;20480;-67
2022/04/01 01:14:34;;;;;;;5.87;4.20;;;3.40;40.60;;;;;;5036328;28;20026;-66
2022/04/01 01:17:01;;;;;;;8.87;4.03;;;3.40;41.10;;;;;;5041657;28;20285;-67
2022/04/01 01:19:29;;;;;;;6.63;3.90;;;3.50;41.00;;;;;;5041428;28;20021;-66
2022/04/01 01:21:56;;;;;;;8.10;4.10;;;3.40;41.00;;;;;;5056119;28;20405;-67
2022/04/01 01:24:33;;;;;;;9.00;4.00;;;3.20;40.50;;;;;;5036601;28;20049;-67
2022/04/01 01:27:00;;;;;;;6.23;3.87;;;3.20;41.10;;;;;;5044146;28;20137;-68
2022/04/01 01:29:29;;;;;;;6.20;3.63;;;3.40;41.10;;;;;;5068851;28;20082;-68
2022/04/01 01:31:56;;;;;;;7.63;4.53;;;3.40;41.40;;;;;;5060561;28;20039;-68
2022/04/01 01:34:23;;;;;;;8.60;4.47;;;3.50;41.30;;;;;;5049329;28;20029;-68
2022/04/01 01:36:50;;;;;;;6.90;4.20;;;;;;;;;;5042907;28;20026;-68
2022/04/01 01:39:16;;;;;;;9.30;4.40;;;;;;;;;;5049573;28;20608;-68
2022/04/01 01:41:43;;;;;;;8.10;4.07;;;3.40;41.40;;;;;;5056442;28;20083;-69
2022/04/01 01:44:08;;;;;;;7.30;4.53;;;3.30;41.60;;;;;;5046999;28;20028;-69
2022/04/01 01:46:34;;;;;;;6.87;4.17;;;;;;;;;;5053069;28;20021;-69
2022/04/01 01:49:01;;;;;;;8.70;4.40;;;;;;;;;;5042219;28;20084;-70
2022/04/01 01:56:56;;;;;;;7.93;4.40;;;;;;;;;;5053338;28;20116;-70
2022/04/01 01:59:22;;;;;;;8.40;4.50;;;;;;;;;;5039802;28;20024;-70
2022/04/01 02:01:50;;;;;;;7.83;4.73;;;;;;;;;;5038203;28;20409;-69
2022/04/01 02:04:16;;;;;;;4.23;2.97;;;;;;;;;;5039506;28;20027;-68
2022/04/01 02:06:41;;;;;;;7.53;3.67;;;;;;;;;;5047478;28;20021;-69
2022/04/01 02:09:07;;;;;;;6.40;4.13;;;3.10;42.70;;;;;;5048441;28;20035;-68
2022/04/01 02:11:34;;;;;;;8.60;4.47;;;;;;;;;;5043489;28;20025;-69
2022/04/01 02:14:00;;;;;;;9.97;4.57;;;;;;;;;;5050963;28;20032;-69
2022/04/01 02:16:26;;;;;;;8.83;4.60;;;;;;;;;;5046665;28;20036;-69
2022/04/01 02:18:51;;;;;;;8.73;4.50;;;3.00;43.10;;;;;;5041803;28;20029;-68
2022/04/01 02:21:18;;;;;;;6.20;4.37;;;;;;;;;;5050132;28;20036;-69
2022/04/01 02:23:45;;;;;;;6.87;4.00;;;;;;;;;;5041335;28;20044;-68
2022/04/01 02:26:12;;;;;;;4.73;3.73;;;;;;;;;;5056112;28;20389;-69
2022/04/01 02:28:39;;;;;;;9.57;4.50;;;;;;;;;;5043215;28;20025;-69
2022/04/01 02:31:05;;;;;;;9.27;4.00;;;;;;;;;;5051968;28;20143;-69
2022/04/01 02:33:32;;;;;;;8.90;4.63;;;;;;;;;;5042576;28;20091;-69
2022/04/01 02:35:58;;;;;;;9.60;5.00;;;;;;;;;;5043026;28;20037;-69
2022/04/01 02:38:28;;;;;;;6.17;4.17;;;;;;;;;;5043875;28;20029;-68
2022/04/01 02:40:54;;;;;;;4.20;3.00;;;;;;;;;;5045039;28;20032;-69
2022/04/01 02:43:21;;;;;;;8.87;5.03;;;;;;;;;;5049440;28;20116;-69
2022/04/01 02:45:50;;;;;;;7.83;4.87;;;;;;;;;;5066416;28;20074;-68
2022/04/01 02:48:17;;;;;;;7.17;3.87;;;;;;;;;;5064578;28;20415;-69
2022/04/01 02:50:46;;;;;;;9.00;5.20;;;;;;;;;;5047890;28;20441;-69
2022/04/01 02:53:13;;;;;;;6.93;4.13;;;;;;;;;;5051402;28;20104;-70
2022/04/01 02:55:39;;;;;;;8.27;4.50;;;;;;;;;;5074776;28;20036;-70
2022/04/01 02:58:09;;;;;;;10.53;4.80;;;;;;;;;;5069360;28;20032;-69
2022/04/01 03:00:37;;;;;;;10.87;5.00;;;;;;;;;;5045809;28;20033;-69
2022/04/01 03:03:06;;;;;;;7.47;4.60;;;;;;;;;;5052716;28;20048;-68
2022/04/01 03:05:33;;;;;;;8.77;4.90;;;;;;;;;;5054887;28;20050;-69
2022/04/01 03:07:59;;;;;;;8.20;4.07;;;;;;;;;;5042323;28;20072;-69
2022/04/01 03:10:26;;;;;;;9.33;5.17;;;;;;;;;;5054402;28;20104;-69
2022/04/01 03:12:53;;;;;;;7.43;4.90;;;;;;;;;;5048808;28;20029;-69
2022/04/01 03:15:19;;;;;;;8.63;4.63;;;;;;;;;;5055579;28;20033;-69
2022/04/01 03:17:45;;;;;;;8.33;4.90;;;;;;;;;;5054579;28;20074;-70
2022/04/01 03:20:14;;;;;;;7.53;4.53;;;;;;;;;;5041957;28;20493;-70
2022/04/01 03:22:41;;;;;;;8.50;4.90;;;;;;;;;;5055736;28;20021;-69
2022/04/01 03:25:08;;;;;;;9.80;5.50;;;;;;;;;;5073909;28;20097;-71
2022/04/01 03:27:34;;;;;;;9.17;5.17;;;;;;;;;;5059268;28;20032;-72
2022/04/01 03:30:00;;;;;;;6.53;3.43;;;;;;;;;;5045755;28;20029;-69
2022/04/01 03:32:26;;;;;;;6.57;4.03;;;;;;;;;;5058258;28;20161;-69
2022/04/01 03:34:52;;;;;;;8.37;5.40;;;;;;;;;;5048960;28;20029;-71
2022/04/01 03:37:18;;;;;;;10.07;5.23;;;;;;;;;;5047437;28;20114;-68
2022/04/01 03:39:44;;;;;;;11.70;5.03;;;;;;;;;;5054017;28;20112;-69
2022/04/01 03:42:11;;;;;;;9.83;4.90;;;;;;;;;;5049721;28;20025;-70
2022/04/01 03:44:37;;;;;;;4.90;3.50;;;;;;;;;;5048511;28;20029;-69
2022/04/01 03:47:10;;;;;;;10.33;4.77;;;;;;;;;;5040055;28;20037;-68
2022/04/01 03:49:43;;;;;;;9.13;5.17;;;;;;;;;;5039443;28;20691;-68
2022/04/01 03:52:09;;;;;;;9.03;5.20;;;;;;;;;;5050889;28;20570;-69
2022/04/01 03:54:36;;;;;;;10.57;5.70;;;;;;;;;;5058048;28;20132;-70
2022/04/01 03:57:02;;;;;;;8.10;5.30;;;;;;;;;;5053922;28;20111;-70
2022/04/01 03:59:40;;;;;;;12.20;5.50;;;;;;;;;;5051804;28;20040;-69
2022/04/01 04:02:08;;;;;;;7.80;4.20;;;;;;;;;;5061858;28;20032;-69
2022/04/01 04:04:35;;;;;;;4.77;3.90;;;;;;;;;;5059103;28;20040;-70
2022/04/01 04:07:02;;;;;;;8.53;4.83;;;;;;;;;;5046555;28;20087;-70
2022/04/01 04:09:28;;;;;;;9.27;5.10;;;;;;;;;;5043334;28;20056;-70
2022/04/01 04:11:55;;;;;;;9.03;4.90;;;;;;;;;;5044140;28;20033;-69
2022/04/01 04:14:21;;;;;;;9.53;5.33;;;;;;;;;;5052846;28;20078;-69
2022/04/01 04:16:47;;;;;;;8.67;4.90;;;1.90;46.70;;;;;;5058122;28;20033;-69
2022/04/01 04:19:13;;;;;;;7.97;5.00;;;;;;;;;;5055862;28;20033;-70
2022/04/01 04:22:14;;;;;;;5.82;3.88;;;1.90;46.70;;;;;;5054332;28;20102;-70
2022/04/01 04:24:59;;;;;;;12.60;4.90;;;;;;;;;;5055528;28;20120;-70
2022/04/01 04:27:29;;;;;;;10.98;5.25;;;;;;;;;;5054922;28;20025;-70
2022/04/01 04:30:06;;;;;;;7.40;4.40;;;;;;;;;;5055465;28;20099;-69
2022/04/01 04:32:51;;;;;;;7.30;4.33;;;;;;;;;;5055099;28;20024;-71
2022/04/01 04:35:20;;;;;;;9.57;4.78;;;;;;;;;;5072883;28;20021;-69
2022/04/01 04:37:47;;;;;;;8.93;4.78;;;1.80;47.30;;;;;;5045144;28;20509;-71
2022/04/01 04:40:15;;;;;;;8.47;4.27;;;;;;;;;;5049641;28;20131;-70
2022/04/01 04:42:45;;;;;;;8.20;3.63;;;;;;;;;;5051422;28;20079;-69
2022/04/01 04:45:12;;;;;;;9.50;4.47;;;;;;;;;;5043439;28;20153;-72
2022/04/01 04:47:39;;;;;;;13.27;4.73;;;;;;;;;;5053345;28;20497;-68
2022/04/01 04:50:05;;;;;;;8.13;4.63;;;;;;;;;;5052446;28;20033;-69
2022/04/01 04:52:32;;;;;;;9.57;5.03;;;;;;;;;;5045311;28;20044;-69
2022/04/01 04:54:59;;;;;;;8.10;4.40;;;;;;;;;;5049951;28;20029;-68
2022/04/01 04:57:27;;;;;;;6.93;3.90;;;;;;;;;;5044382;28;20554;-68
2022/04/01 04:59:53;;;;;;;7.57;3.63;;;;;;;;;;5056139;28;20056;-69
2022/04/01 05:02:41;;;;;;;6.37;3.70;;;;;;;;;;5038188;28;20142;-70
2022/04/01 05:05:24;;;;;;;9.10;4.57;;;;;;;;;;5052785;28;20115;-70
2022/04/01 05:07:53;;;;;;;9.70;4.73;;;;;;;;;;5044101;28;20147;-70
2022/04/01 05:10:34;;;;;;;8.27;4.60;;;;;;;;;;5048065;28;20064;-70
2022/04/01 05:13:08;;;;;;;8.20;4.83;;;;;;;;;;5039999;28;20037;-69
2022/04/01 05:15:35;;;;;;;6.03;3.33;;;;;;;;;;5042176;28;20550;-71
2022/04/01 05:18:12;;;;;;;9.53;4.90;;;;;;;;;;5046667;28;20036;-70
2022/04/01 05:20:39;;;;;;;9.83;4.90;;;;;;;;;;5047094;28;20362;-69
2022/04/01 05:23:11;;;;;;;9.87;5.60;;;;;;;;;;5046314;28;20363;-68
2022/04/01 05:25:42;;;;;;;11.47;4.83;;;;;;;;;;5049506;28;20136;-69
2022/04/01 05:28:11;;;;;;;7.20;4.43;;;;;;;;;;5044723;28;20025;-68
2022/04/01 05:30:38;;;;;;;10.93;3.93;;;;;;;;;;5050721;28;20052;-69
2022/04/01 05:33:08;;;;;;;7.33;4.57;;;;;;;;;;5038946;28;20033;-69
2022/04/01 05:35:38;;;;;;;6.87;3.43;;;;;;;;;;5038949;28;20419;-70
2022/04/01 05:38:04;;;;;;;10.20;4.70;;;;;;;;;;5053390;28;20056;-70
2022/04/01 05:40:31;;;;;;;7.07;4.17;;;;;;;;;;5049689;28;20116;-67
2022/04/01 05:42:58;;;;;;;8.37;3.77;;;;;;;;;;5048798;28;20036;-67
2022/04/01 05:45:26;;;;;;;5.20;2.80;;;;;;;;;;5048798;28;20127;-67
2022/04/01 05:47:52;;;;;;;9.20;3.87;;;;;;;;;;5052107;28;20029;-66
2022/04/01 05:50:18;;;;;;;9.20;5.03;;;;;;;;;;5042147;28;20041;-69
2022/04/01 05:52:47;;;;;;;8.33;4.30;;;;;;;;;;5042295;28;20056;-66
2022/04/01 05:55:14;;;;;;;11.10;4.10;;;;;;;;;;5043391;28;20033;-72
2022/04/01 05:57:40;;;;;;;9.20;4.13;;;;;;;;;;5052447;28;20029;-68
2022/04/01 06:00:07;;;;;;;8.50;4.13;;;;;;;;;;5052597;28;20044;-67
2022/04/01 06:02:35;;;;;;;10.20;5.03;;;;;;;;;;5040505;28;20030;-68
2022/04/01 06:05:10;;;;;;;6.70;3.33;;;;;;;;;;5037626;28;20552;-68
2022/04/01 06:08:01;;;;;;;8.23;4.28;;;;;;;;;;5047358;28;20029;-69
2022/04/01 06:10:30;;;;;;;9.87;4.20;;;;;;;;;;5043506;28;20040;-67
2022/04/01 06:12:56;;;;;;;9.37;4.17;;;;;;;;;;5062152;22;20078;-63
2022/04/01 06:15:22;;;;;;;7.63;4.10;;;;;;;;;;5041823;28;20060;-64
2022/04/01 06:18:00;;;;;;;6.47;3.73;;;;;;;;;;5045972;28;20118;-64
2022/04/01 06:20:28;;;;;;;9.77;5.30;;;;;;;;;;5043727;28;20045;-63
2022/04/01 06:23:00;;;;;;;8.27;4.70;;;;;;;;;;5041194;28;20037;-64
2022/04/01 06:25:30;;;;;;;9.67;4.70;;;;;;;;;;5029701;28;20415;-66
2022/04/01 06:28:00;;;;;;;8.10;3.90;;;;;;;;;;5027105;28;20397;-64
2022/04/01 06:30:29;;;;;;;8.30;5.13;;;;;;;;;;5030276;28;20033;-65
2022/04/01 06:33:01;;;;;;;14.33;7.03;;;;;;;;;;5026874;28;20029;-64
2022/04/01 06:35:35;;;;;;;12.33;5.50;;;;;;;;;;5029626;28;20025;-64
2022/04/01 06:38:05;;;;;;;9.93;3.77;;;;;;;;;;5017503;28;20025;-64
2022/04/01 06:40:49;;;;;;;13.73;5.80;;;;;;;;;;5026303;28;20037;-63
2022/04/01 06:43:16;;;;;;;12.73;6.88;;;;;;;;;;5020408;28;20667;-65
2022/04/01 06:45:42;;;;;;;10.83;5.40;;;;;;;;;;5019577;28;20101;-65
2022/04/01 06:48:08;;;;;;;10.40;4.17;;;;;;;;;;5028569;28;20076;-64
2022/04/01 06:50:34;;;;;;;6.17;3.10;;;;;;;;;;5032935;28;20099;-65
2022/04/01 06:53:01;;;;;;;9.67;5.17;;;;;;;;;;5032061;28;20049;-64
2022/04/01 06:55:27;;;;;;;9.60;4.77;;;;;;;;;;5023745;28;20038;-64
2022/04/01 06:57:53;;;;;;;10.33;5.60;;;;;;;;;;5028528;28;20481;-65
2022/04/01 07:00:19;;;;;;;10.23;3.80;;;;;;;;;;5032566;28;20101;-63
2022/04/01 07:02:46;;;;;;;11.47;5.00;;;;;;;;;;5030998;28;20364;-64
2022/04/01 07:05:12;;;;;;;9.73;4.40;;;;;;;;;;5028684;28;20022;-63
2022/04/01 07:07:41;;;;;;;8.30;4.77;;;;;;;;;;5029459;28;20032;-64
2022/04/01 07:10:09;;;;;;;8.03;4.33;;;;;;;;;;5029271;28;20280;-65
2022/04/01 07:12:36;;;;;;;8.57;4.10;;;;;;;;;;5030021;28;20036;-65
2022/04/01 07:15:02;;;;;;;8.00;4.07;;;;;;;;;;5025926;28;20033;-62
2022/04/01 07:17:28;;;;;;;9.63;4.67;;;;;;;;;;5027763;28;20087;-62
2022/04/01 07:19:54;;;;;;;10.27;4.40;;;3.00;47.80;;;;;;5024849;28;20037;-62
2022/04/01 07:22:19;;;;;;;8.80;4.27;;;3.20;48.00;;;;;;5027519;28;20030;-64
2022/04/01 07:24:45;;;;;;;7.00;3.73;;;3.30;48.00;;;;;;5024367;28;20065;-62
2022/04/01 07:27:11;;;;;;;9.97;4.17;;;3.30;46.90;;;;;;5025023;28;20405;-62
2022/04/01 07:29:37;;;;;;;6.70;3.87;;;3.40;47.70;;;;;;5029476;28;20462;-62
2022/04/01 07:34:49;;;;;;;8.15;2.35;;;;;;;;;;5032284;28;20091;-64
2022/04/01 07:37:15;;;;;;;7.77;3.97;;;3.70;45.80;;;;;;5031657;28;20433;-62
2022/04/01 07:39:40;;;;;;;6.90;3.60;;;3.90;46.00;;;;;;5032239;28;20059;-62
2022/04/01 07:42:06;;;;;;;8.13;3.45;;;4.40;45.30;;;;;;5030005;28;20053;-63
2022/04/01 07:44:32;;;;;;;5.97;3.33;;;4.00;44.70;;;;;;5032376;28;20041;-63
2022/04/01 07:47:00;;;;;;;6.95;3.63;;;4.00;45.40;;;;;;5027412;28;20030;-63
2022/04/01 07:49:25;;;;;;;8.05;3.75;;;4.20;44.90;;;;;;5026604;28;20034;-64
2022/04/01 07:51:51;;;;;;;9.40;3.95;;;3.90;43.80;;;;;;5032703;28;20508;-65
2022/04/01 07:54:16;;;;;;;4.65;3.05;;;4.20;44.80;;;;;;5029259;28;20079;-62
2022/04/01 07:56:43;;;;;;;8.18;4.18;;;4.40;43.00;;;;;;5033861;28;20033;-63
2022/04/01 07:59:10;;;;;;;8.55;3.72;;;4.90;43.00;;;;;;5031690;28;20482;-62
2022/04/01 08:01:37;;;;;;;7.82;3.17;;;;;;;;;;5025777;28;20029;-62
2022/04/01 08:04:03;;;;;;;7.22;4.10;;;4.40;42.10;;;;;;5027836;28;20662;-61
2022/04/01 08:06:30;;;;;;;4.72;2.63;;;;;;;;;;5031496;28;20041;-63
2022/04/01 08:08:58;;;;;;;7.35;3.95;;;;;;;;;;5033429;28;20033;-63
2022/04/01 08:11:24;;;;;;;7.68;4.40;;;;;;;;;;5032250;28;20048;-63
2022/04/01 08:13:50;;;;;;;10.13;4.72;;;;;;;;;;5032146;28;20044;-63
2022/04/01 08:16:15;;;;;;;9.32;4.10;;;4.70;41.80;;;;;;5032696;28;20033;-63
2022/04/01 08:18:41;;;;;;;7.18;2.85;;;;;;;;;;5029654;28;20071;-62
2022/04/01 08:21:07;;;;;;;7.47;2.65;;;;;;;;;;5030338;28;20405;-62
2022/04/01 08:23:35;;;;;;;5.25;2.85;;;5.00;39.50;;;;;;5033250;28;20042;-62
2022/04/01 08:26:04;;;;;;;10.02;2.78;;;;;;;;;;5033392;28;20029;-62
2022/04/01 08:28:30;;;;;;;4.80;3.20;;;;;;;;;;5029901;28;20033;-64
2022/04/01 08:30:56;;;;;;;7.80;2.30;;;;;;;;;;5032611;28;20037;-61
2022/04/01 08:33:22;;;;;;;10.13;3.47;;;;;;;;;;5035047;28;20099;-62
2022/04/01 08:35:48;;;;;;;5.90;2.90;;;;;;;;;;5030898;28;20045;-62
2022/04/01 08:38:14;;;;;;;8.57;3.70;;;;;;;;;;5030828;28;20033;-63
2022/04/01 08:40:40;;;;;;;4.68;2.25;;;5.50;38.80;;;;;;5032292;28;20112;-61
2022/04/01 08:43:06;;;;;;;6.40;2.58;;;;;;;;;;5024625;28;20184;-60
2022/04/01 08:45:34;;;;;;;6.55;3.30;;;5.70;35.60;;;;;;5027820;28;20036;-65
2022/04/01 08:48:00;;;;;;;5.95;3.08;;;;;;;;;;5030726;28;20421;-62
2022/04/01 08:50:26;;;;;;;9.32;3.28;;;6.30;33.10;;;;;;5030084;28;20047;-63
2022/04/01 08:52:52;;;;;;;14.05;3.42;;;6.00;32.60;;;;;;5030321;28;20037;-62
2022/04/01 08:55:19;;;;;;;6.20;2.35;;;;;;;;;;5033957;28;20098;-61
2022/04/01 08:57:44;;;;;;;5.95;3.13;;;6.10;33.50;;;;;;5035308;28;20040;-62
2022/04/01 09:00:16;;;;;;;6.35;3.40;;;6.20;33.00;;;;;;5031541;28;20041;-63
2022/04/01 09:02:50;;;;;;;3.97;2.50;;;;;;;;;;5032624;28;20022;-62
2022/04/01 09:05:16;;;;;;;3.78;2.75;;;6.10;31.90;;;;;;5032410;28;20037;-62
2022/04/01 09:07:42;;;;;;;7.90;3.25;;;6.00;31.90;;;;;;5031227;28;20034;-62
2022/04/01 09:10:08;;;;;;;6.47;2.90;;;;;;;;;;5032333;28;20117;-63
2022/04/01 09:12:34;;;;;;;4.03;2.53;;;5.90;31.40;;;;;;5031810;28;20509;-62
2022/04/01 09:15:01;;;;;;;5.47;3.28;;;;;;;;;;5032449;28;20034;-64
2022/04/01 09:17:44;;;;;;;6.45;3.90;;;5.90;32.20;;;;;;5030801;28;20037;-63
2022/04/01 09:20:11;;;;;;;5.97;3.17;;;6.10;31.40;;;;;;5032312;28;20034;-63
2022/04/01 09:22:38;;;;;;;5.53;3.20;;;;;;;;;;5030575;28;20029;-62
2022/04/01 09:25:07;;;;;;;10.57;3.03;;;;;;;;;;5032388;28;20061;-63
2022/04/01 09:27:42;;;;;;;9.45;3.05;;;;;;;;;;5030806;28;20025;-63
2022/04/01 09:30:09;;;;;;;7.05;3.42;;;;;;;;;;5031646;28;20613;-63
2022/04/01 09:32:39;;;;;;;4.32;2.83;;;;;;;;;;5030987;28;20021;-63
2022/04/01 09:35:07;;;;;;;7.00;3.38;;;6.30;31.00;;;;;;5032002;28;20026;-64
2022/04/01 09:37:38;;;;;;;8.80;3.63;;;6.20;31.80;;;;;;5031633;28;20033;-63
2022/04/01 09:40:04;;;;;;;6.50;3.10;;;;;;;;;;5031725;28;20405;-61
2022/04/01 09:42:30;;;;;;;6.53;3.33;;;;;;;;;;5032055;28;20022;-63
2022/04/01 09:45:00;;;;;;;6.93;3.30;;;6.10;31.40;;;;;;5032850;28;20048;-63
2022/04/01 09:47:26;;;;;;;7.95;3.25;;;6.30;30.50;;;;;;5033018;28;20037;-62
2022/04/01 09:49:55;;;;;;;6.22;3.78;;;6.00;30.50;;;;;;5033767;28;20022;-62
2022/04/01 09:52:22;;;;;;;6.97;4.53;;;;;;;;;;5032100;28;20026;-63
2022/04/01 09:54:51;;;;;;;6.75;3.10;;;6.20;30.50;;;;;;5030361;28;20029;-63
2022/04/01 09:57:20;;;;;;;6.10;3.63;;;6.20;30.90;;;;;;5030650;28;20076;-62
2022/04/01 09:59:48;;;;;;;9.02;3.42;;;6.30;31.50;;;;;;5031830;28;20030;-62
2022/04/01 10:02:15;;;;;;;7.00;3.88;;;;;;;;;;5029570;28;20030;-62
2022/04/01 10:04:41;;;;;;;8.90;3.05;;;6.50;30.50;;;;;;5029777;28;20022;-62
2022/04/01 10:07:08;;;;;;;9.13;3.60;;;6.40;32.10;;;;;;5031517;28;20490;-62
2022/04/01 10:09:35;;;;;;;9.68;3.10;;;;;;;;;;5031286;28;20032;-62
2022/04/01 10:12:06;;;;;;;5.05;2.78;;;6.80;31.50;;;;;;5030096;28;20060;-63
2022/04/01 10:14:32;;;;;;;5.70;3.17;;;6.40;30.30;;;;;;5031090;28;20029;-61
2022/04/01 10:17:01;;;;;;;7.35;3.70;;;6.50;30.40;;;;;;5035567;28;20033;-62
2022/04/01 10:19:32;;;;;;;6.60;3.58;;;;;;;;;;5031177;28;20044;-63
2022/04/01 10:21:58;;;;;;;6.80;2.72;;;;;;;;;;5031638;28;20440;-62
2022/04/01 10:24:44;;;;;;;7.40;3.22;;;6.40;30.80;;;;;;5031660;28;20026;-63
2022/04/01 10:27:21;;;;;;;;;;;6.30;31.00;;;;;;5028690;28;20028;-64
2022/04/01 10:29:47;;;;;;;4.50;3.20;;;;;;;;;;5031002;28;19964;-63
2022/04/01 10:32:24;;;;;;;6.20;3.60;;;;;;;;;;5030760;28;20041;-63
2022/04/01 10:34:52;;;;;;;3.47;2.22;;;6.40;31.40;;;;;;5029130;28;20437;-63
2022/04/01 10:37:18;;;;;;;5.57;3.50;;;;;;;;;;5029580;28;20044;-63
2022/04/01 10:40:00;;;;;;;9.05;3.53;;;;;;;;;;5031792;28;20417;-64
2022/04/01 10:42:30;;;;;;;9.85;3.92;;;;;;;;;;5022115;28;20029;-62
2022/04/01 10:44:57;;;;;;;7.75;3.50;;;;;;;;;;5030531;28;20073;-63
2022/04/01 10:47:25;;;;;;;8.38;3.65;;;;;;;;;;5030474;28;20104;-64
2022/04/01 10:52:35;;;;;;;6.68;3.33;;;6.70;29.70;;;;;;5031126;28;20103;-62
2022/04/01 10:55:01;;;;;;;6.03;2.60;;;;;;;;;;5031001;28;20444;-63
2022/04/01 10:57:29;;;;;;;8.10;3.33;;;;;;;;;;5030010;28;20486;-64
2022/04/01 10:59:59;;;;;;;5.43;3.20;;;;;;;;;;5027229;28;20029;-63
2022/04/01 11:02:25;;;;;;;7.05;3.38;;;6.60;29.90;;;;;;5031688;28;20080;-63
2022/04/01 11:04:52;;;;;;;4.75;3.00;;;;;;;;;;5024947;28;20545;-63
2022/04/01 11:07:24;;;;;;;11.93;2.45;;;;;;;;;;5018163;28;20022;-64
2022/04/01 11:09:53;;;;;;;7.50;3.65;;;;;;;;;;5011652;28;20105;-64
2022/04/01 11:12:21;;;;;;;7.10;3.17;;;6.60;29.80;;;;;;5026164;28;20128;-62
2022/04/01 11:14:57;;;;;;;4.93;2.78;;;;;;;;;;5030352;28;20041;-63
2022/04/01 11:17:24;;;;;;;5.70;3.42;;;;;;;;;;5035153;28;21292;-62
2022/04/01 11:20:03;;;;;;;4.72;2.92;;;6.80;28.80;;;;;;5038305;28;20037;-62
2022/04/01 11:22:40;;;;;;;4.03;2.30;;;;;;;;;;5036568;28;20033;-63
2022/04/01 11:25:38;;;;;;;4.60;2.90;;;6.80;29.20;;;;;;5039279;28;20113;-64
2022/04/01 11:28:08;;;;;;;6.40;3.55;;;7.00;29.40;;;;;;5040262;28;20107;-65
2022/04/01 11:30:40;;;;;;;20.70;2.65;;;;;;;;;;5035347;28;20519;-62
2022/04/01 11:33:07;;;;;;;4.60;2.80;;;;;;;;;;5036422;28;20393;-62
2022/04/01 11:35:36;;;;;;;4.97;3.38;;;;;;;;;;5041447;28;20037;-61
2022/04/01 11:38:02;;;;;;;5.75;3.42;;;;;;;;;;5043659;28;20068;-62
2022/04/01 11:40:29;;;;;;;5.30;3.00;;;;;;;;;;5040906;28;20044;-61
2022/04/01 11:43:02;;;;;;;7.97;3.05;;;;;;;;;;5040553;28;20025;-62
2022/04/01 11:45:29;;;;;;;7.90;3.63;;;;;;;;;;5035702;28;20048;-62
2022/04/01 11:47:55;;;;;;;8.20;3.10;;;;;;;;;;5034399;28;20030;-62
2022/04/01 11:50:22;;;;;;;4.82;3.17;;;;;;;;;;5031825;28;20028;-62
2022/04/01 11:52:49;;;;;;;7.97;2.70;;;;;;;;;;5033698;28;20034;-62
2022/04/01 11:55:20;;;;;;;3.83;2.42;;;;;;;;;;5035309;28;20029;-62
2022/04/01 11:57:47;;;;;;;4.32;2.83;;;;;;;;;;5035172;28;20044;-62
2022/04/01 12:00:14;;;;;;;6.35;3.20;;;;;;;;;;5034942;28;20446;-62
2022/04/01 12:02:41;;;;;;;3.80;3.10;;;;;;;;;;5033975;28;20477;-62
2022/04/01 12:05:08;;;;;;;4.88;2.85;;;;;;;;;;5034867;28;20434;-63
2022/04/01 12:10:19;;;;;;;7.32;3.47;;;;;;;;;;5032965;28;20514;-62
2022/04/01 12:15:15;;;;;;;9.07;3.08;;;;;;;;;;5047755;22;20386;-65
2022/04/01 12:17:48;;;;;;;8.05;3.30;;;;;;;;;;5028441;28;20100;-67
2022/04/01 12:20:14;;;;;;;3.13;2.05;;;;;;;;;;5046041;28;20033;-66
2022/04/01 12:22:40;;;;;;;8.95;3.00;;;;;;;;;;5030733;28;20052;-66
2022/04/01 12:25:07;;;;;;;6.93;3.17;;;;;;;;;;5034394;28;20404;-66
2022/04/01 12:27:33;;;;;;;4.43;3.20;;;;;;;;;;5029318;28;20041;-66
2022/04/01 12:29:59;;;;;;;4.35;3.00;;;;;;;;;;5035319;28;20045;-67
2022/04/01 12:32:25;;;;;;;6.80;2.63;;;;;;;;;;5035581;28;20030;-65
2022/04/01 12:34:51;;;;;;;6.80;3.67;;;;;;;;;;5033451;28;20124;-66
2022/04/01 12:37:17;;;;;;;5.28;3.08;;;;;;;;;;5031916;28;20060;-66
2022/04/01 12:39:46;;;;;;;8.45;3.25;;;;;;;;;;5031513;28;20038;-65
2022/04/01 12:42:14;;;;;;;6.00;2.90;;;;;;;;;;5029563;28;20037;-66
2022/04/01 12:44:41;;;;;;;5.65;2.90;;;;;;;;;;5028810;28;20037;-66
2022/04/01 12:47:07;;;;;;;6.13;3.53;;;;;;;;;;5032872;28;20551;-68
2022/04/01 12:49:34;;;;;;;5.70;3.13;;;;;;;;;;5028995;28;20028;-67
2022/04/01 12:52:02;;;;;;;5.45;1.95;;;;;;;;;;5036265;28;20033;-67
2022/04/01 12:54:31;;;;;;;6.43;3.20;;;;;;;;;;5032696;28;20102;-67
2022/04/01 12:56:58;;;;;;;5.40;2.35;;;;;;;;;;5030096;28;20065;-67
2022/04/01 12:59:24;;;;;;;9.52;2.60;;;;;;;;;;5027210;28;20030;-67
2022/04/01 13:01:58;;;;;;;8.75;3.67;;;;;;;;;;5029387;28;20061;-67
2022/04/01 13:04:24;;;;;;;7.45;4.35;;;;;;;;;;5029114;28;20113;-66
2022/04/01 13:07:05;;;;;;;3.58;2.45;;;;;;;;;;5023595;28;20509;-67
2022/04/01 13:09:32;;;;;;;6.55;2.83;;;;;;;;;;5027952;28;20413;-67
2022/04/01 13:11:59;;;;;;;7.75;3.33;;;;;;;;;;5028150;28;20033;-67
2022/04/01 13:14:26;;;;;;;20.23;12.13;;;;;;;;;;5026455;28;20033;-69
2022/04/01 13:16:54;;;;;;;5.85;3.17;;;;;;;;;;5027368;28;20056;-66
2022/04/01 13:19:31;;;;;;;7.28;3.20;;;;;;;;;;5024397;28;20052;-67
2022/04/01 13:21:58;;;;;;;4.40;2.72;;;;;;;;;;5029293;28;20029;-66
2022/04/01 13:24:40;;;;;;;5.85;2.85;;;;;;;;;;5030146;28;20422;-66
2022/04/01 13:27:08;;;;;;;6.20;3.33;;;;;;;;;;5022952;28;20044;-67
2022/04/01 13:29:34;;;;;;;6.22;3.05;;;;;;;;;;5030284;28;20091;-66
2022/04/01 13:32:00;;;;;;;3.75;2.08;;;;;;;;;;5016212;28;20032;-67
2022/04/01 13:34:26;;;;;;;5.13;2.72;;;;;;;;;;5027657;28;20037;-66
2022/04/01 13:36:53;;;;;;;4.75;2.33;;;;;;;;;;5029182;28;20124;-65
2022/04/01 13:39:19;;;;;;;6.95;3.88;;;;;;;;;;5016145;28;20108;-66
2022/04/01 13:41:46;;;;;;;7.15;3.40;;;;;;;;;;5026065;28;20120;-67
2022/04/01 13:44:12;;;;;;;3.90;2.88;;;;;;;;;;5028682;28;20052;-66
2022/04/01 13:46:38;;;;;;;12.38;3.83;;;;;;;;;;5015942;28;20021;-66
2022/04/01 13:49:05;;;;;;;5.00;2.63;;;;;;;;;;5019312;28;20041;-66
2022/04/01 13:51:33;;;;;;;5.28;2.00;;;;;;;;;;5027083;28;20067;-66
2022/04/01 13:53:59;;;;;;;5.80;3.53;;;;;;;;;;5025922;28;20033;-67
2022/04/01 13:56:25;;;;;;;7.20;3.38;;;;;;;;;;5025073;28;20392;-67
2022/04/01 13:58:51;;;;;;;16.88;9.98;;;;;;;;;;5027727;28;20037;-66
2022/04/01 14:01:17;;;;;;;6.88;3.53;;;;;;;;;;5025221;28;20056;-66
2022/04/01 14:03:43;;;;;;;6.72;3.22;;;;;;;;;;5023366;28;20486;-67
2022/04/01 14:06:09;;;;;;;9.32;3.55;;;;;;;;;;5030810;28;20453;-67
2022/04/01 14:08:36;;;;;;;3.85;2.20;;;;;;;;;;5029505;28;20032;-67
2022/04/01 14:11:03;;;;;;;8.32;3.33;;;;;;;;;;5026996;28;20034;-67
2022/04/01 14:13:29;;;;;;;9.85;3.38;;;;;;;;;;5021499;28;20083;-67
2022/04/01 14:15:55;;;;;;;9.40;3.45;;;;;;;;;;5028012;28;20030;-65
2022/04/01 14:18:21;;;;;;;9.68;3.42;;;;;;;;;;5029481;28;20036;-66
2022/04/01 14:20:48;;;;;;;6.45;3.28;;;;;;;;;;5028007;28;20458;-67
2022/04/01 14:23:14;;;;;;;5.85;3.35;;;;;;;;;;5027864;28;20021;-65
2022/04/01 14:25:44;;;;;;;6.22;3.78;;;;;;;;;;5030923;28;20359;-66
2022/04/01 14:28:10;;;;;;;4.03;2.78;;;;;;;;;;5029341;28;20025;-67
2022/04/01 14:30:36;;;;;;;5.63;3.13;;;;;;;;;;5036833;28;20071;-66